Time;durP1;ratioP1;P1;durP2;ratioP2;P2;SDS_P1;SDS_P2;PMS_P1;PMS_P2;Temp;Humidity;BMP_temperature;BMP_pressure;BME280_temperature;BME280_humidity;BME280_pressure;Samples;Min_cycle;Max_cycle;Signal;HPM_P1;HPM_P2
2023/12/26 00:00:14;;;;;;;0.93;0.90;;;;;;;12.05;77.53;100604.16;6136364;23;20018;-76
2023/12/26 00:02:42;;;;;;;2.72;1.05;;;;;;;12.07;77.77;100589.66;6136791;23;20030;-76
2023/12/26 00:05:10;;;;;;;1.83;1.35;;;;;;;12.02;77.56;100591.19;6137189;23;20026;-76
2023/12/26 00:07:40;;;;;;;1.52;1.10;;;;;;;12.04;77.53;100594.44;6136941;23;20026;-76
2023/12/26 00:10:08;;;;;;;2.28;0.80;;;;;;;12.06;77.77;100596.91;6136631;23;20040;-76
2023/12/26 00:12:36;;;;;;;2.92;1.08;;;;;;;12.05;77.78;100593.41;6136472;23;20040;-76
2023/12/26 00:15:04;;;;;;;2.05;0.80;;;;;;;12.06;77.50;100599.59;6136186;23;20070;-76
2023/12/26 00:17:32;;;;;;;2.22;0.80;;;;;;;12.04;77.84;100582.84;6137455;23;20037;-76
2023/12/26 00:20:00;;;;;;;2.60;1.02;;;;;;;12.05;77.48;100595.28;6135302;23;20471;-76
2023/12/26 00:22:28;;;;;;;3.05;0.98;;;;;;;12.05;77.64;100596.09;6134511;23;20373;-76
2023/12/26 00:24:58;;;;;;;0.93;0.90;;;;;;;12.04;77.73;100585.56;6134820;23;20033;-76
2023/12/26 00:27:25;;;;;;;1.63;0.90;;;;;;;12.04;77.79;100599.03;6135020;23;20034;-76
2023/12/26 00:29:53;;;;;;;2.95;0.90;;;;;;;12.02;78.05;100584.97;6136152;23;20093;-76
2023/12/26 00:32:21;;;;;;;1.17;0.82;;;;;;;12.01;77.71;100583.34;6136856;23;20319;-76
2023/12/26 00:34:49;;;;;;;3.45;0.82;;;;;;;12.02;77.72;100584.97;6136095;23;20026;-76
2023/12/26 00:37:17;;;;;;;2.53;1.00;;;;;;;12.00;77.82;100590.59;6136482;23;20077;-77
2023/12/26 00:39:45;;;;;;;1.73;0.98;;;;;;;11.99;77.76;100588.97;6136081;23;20030;-76
2023/12/26 00:42:15;;;;;;;2.40;1.00;;;;;;;11.97;77.56;100584.88;6136377;23;20044;-77
2023/12/26 00:44:43;;;;;;;1.05;0.73;;;;;;;12.00;77.60;100582.50;6136655;23;20053;-77
2023/12/26 00:47:11;;;;;;;1.48;1.08;;;;;;;11.97;77.94;100582.16;6136110;23;20021;-76
2023/12/26 00:49:38;;;;;;;1.02;0.70;;;;;;;11.96;77.70;100585.91;6135460;23;20539;-77
2023/12/26 00:52:06;;;;;;;5.15;0.98;;;;;;;11.94;77.69;100593.41;6134380;23;20053;-76
2023/12/26 00:54:35;;;;;;;1.63;1.10;;;;;;;11.92;77.80;100590.97;6135022;23;20436;-77
2023/12/26 00:57:04;;;;;;;0.90;0.85;;;;;;;11.92;78.05;100588.28;6134498;23;20041;-76
2023/12/26 00:59:34;;;;;;;1.75;0.90;;;;;;;11.93;78.06;100616.84;6136683;23;20240;-76
2023/12/26 01:02:02;;;;;;;2.10;0.82;;;;;;;11.92;78.15;100606.31;6135449;23;20044;-76
2023/12/26 01:04:30;;;;;;;2.15;0.75;;;;;;;11.91;77.68;100610.03;6136483;23;20021;-76
2023/12/26 01:06:58;;;;;;;2.00;1.00;;;;;;;11.89;77.70;100609.47;6136621;23;20074;-76
2023/12/26 01:09:26;;;;;;;0.82;0.80;;;;;;;11.89;77.50;100612.97;6136673;23;20040;-76
2023/12/26 01:11:53;;;;;;;1.10;0.50;;;;;;;11.88;77.69;100613.22;6135837;23;20033;-76
2023/12/26 01:14:21;;;;;;;0.40;0.40;;;;;;;11.86;77.67;100623.41;6136085;23;20033;-76
2023/12/26 01:16:51;;;;;;;1.83;0.60;;;;;;;11.84;78.03;100625.50;6136120;23;20054;-77
2023/12/26 01:19:18;;;;;;;2.63;0.57;;;;;;;11.82;78.23;100631.13;6136225;23;20021;-76
2023/12/26 01:21:46;;;;;;;2.30;0.80;;;;;;;11.82;77.91;100619.53;6134597;23;20022;-76
2023/12/26 01:24:14;;;;;;;1.02;0.50;;;;;;;11.82;77.70;100624.94;6134670;23;20105;-77
2023/12/26 01:26:43;;;;;;;2.35;0.73;;;;;;;11.79;77.86;100618.13;6134705;23;20026;-77
2023/12/26 01:29:11;;;;;;;1.40;0.70;;;;;;;11.83;78.04;100616.63;6136316;23;20018;-76
2023/12/26 01:31:39;;;;;;;1.17;0.90;;;;;;;11.82;77.96;100625.75;6135317;23;20026;-77
2023/12/26 01:34:08;;;;;;;0.63;0.50;;;;;;;11.82;78.13;100624.94;6136787;23;20025;-77
2023/12/26 01:36:36;;;;;;;4.18;0.60;;;;;;;11.80;77.94;100622.47;6135695;23;20330;-77
2023/12/26 01:39:06;;;;;;;0.68;0.50;;;;;;;11.80;77.88;100627.03;6136611;23;20036;-77
2023/12/26 01:41:35;;;;;;;0.40;0.40;;;;;;;11.79;78.07;100636.16;6136101;23;20025;-76
2023/12/26 01:44:03;;;;;;;0.90;0.52;;;;;;;11.77;78.17;100636.41;6134556;23;20125;-77
2023/12/26 01:46:31;;;;;;;1.10;0.68;;;;;;;11.77;77.84;100638.25;6135780;23;20026;-77
2023/12/26 01:49:00;;;;;;;0.85;0.85;;;;;;;11.76;77.79;100650.06;6135810;23;20026;-77
2023/12/26 01:51:31;;;;;;;2.25;0.85;;;;;;;11.78;77.86;100658.75;6134800;23;20026;-77
2023/12/26 01:54:00;;;;;;;1.73;0.70;;;;;;;11.76;78.25;100655.44;6134971;23;20048;-77
2023/12/26 01:56:29;;;;;;;1.20;0.65;;;;;;;11.77;77.89;100654.41;6134099;23;20086;-77
2023/12/26 01:58:57;;;;;;;0.75;0.60;;;;;;;11.76;78.05;100666.22;6135806;23;20049;-77
2023/12/26 02:01:25;;;;;;;0.82;0.50;;;;;;;11.74;78.20;100648.44;6135430;23;20029;-77
2023/12/26 02:03:54;;;;;;;0.30;0.30;;;;;;;11.74;78.11;100656.50;6136198;23;20264;-77
2023/12/26 02:06:23;;;;;;;1.80;0.57;;;;;;;11.75;77.88;100660.00;6136345;23;20029;-76
2023/12/26 02:08:52;;;;;;;0.50;0.50;;;;;;;11.76;78.18;100664.34;6136331;23;20022;-77
2023/12/26 02:11:21;;;;;;;0.98;0.60;;;;;;;11.76;78.10;100658.97;6136052;23;20045;-77
2023/12/26 02:13:49;;;;;;;1.25;0.32;;;;;;;11.77;77.73;100673.25;6135523;23;20029;-77
2023/12/26 02:16:21;;;;;;;0.38;0.38;;;;;;;11.78;77.78;100672.22;6135553;23;20069;-77
2023/12/26 02:18:50;;;;;;;1.35;0.63;;;;;;;11.77;78.07;100679.47;6135986;23;20028;-77
2023/12/26 02:21:18;;;;;;;0.80;0.52;;;;;;;11.77;77.71;100678.63;6134061;23;20148;-76
2023/12/26 02:23:53;;;;;;;0.40;0.40;;;;;;;11.73;78.22;100679.09;6133780;23;20029;-76
2023/12/26 02:26:22;;;;;;;0.65;0.50;;;;;;;11.74;78.06;100680.75;6134422;23;20026;-76
2023/12/26 02:28:51;;;;;;;0.40;0.30;;;;;;;11.74;77.61;100688.81;6135195;23;20022;-76
2023/12/26 02:31:19;;;;;;;0.68;0.50;;;;;;;11.69;78.05;100677.09;6136258;23;20021;-76
2023/12/26 02:33:48;;;;;;;0.85;0.50;;;;;;;11.71;78.01;100689.28;6135775;23;20086;-76
2023/12/26 02:36:15;;;;;;;1.25;0.43;;;;;;;11.71;78.13;100686.59;6136522;23;20065;-76
2023/12/26 02:38:43;;;;;;;0.55;0.40;;;;;;;11.68;77.79;100681.66;6136185;23;20062;-76
2023/12/26 02:41:12;;;;;;;0.38;0.38;;;;;;;11.69;78.19;100686.00;6136165;23;20049;-77
2023/12/26 02:43:40;;;;;;;1.13;0.30;;;;;;;11.69;78.26;100683.31;6135815;23;20097;-76
2023/12/26 02:46:08;;;;;;;0.80;0.57;;;;;;;11.69;77.84;100683.31;6136035;23;20030;-76
2023/12/26 02:48:36;;;;;;;0.45;0.38;;;;;;;11.68;77.85;100688.94;6137440;23;20074;-77
2023/12/26 02:51:06;;;;;;;0.30;0.30;;;;;;;11.68;77.68;100676.28;6136254;23;20026;-76
2023/12/26 02:53:34;;;;;;;0.45;0.40;;;;;;;11.70;77.70;100676.06;6135014;23;20106;-75
2023/12/26 02:56:03;;;;;;;0.85;0.70;;;;;;;11.69;77.81;100679.78;6136149;23;20053;-77
2023/12/26 02:58:32;;;;;;;0.45;0.45;;;;;;;11.69;78.18;100683.31;6136082;23;20033;-76
2023/12/26 03:01:00;;;;;;;2.05;1.45;;;;;;;11.69;77.99;100677.09;6137359;23;20026;-77
2023/12/26 03:03:28;;;;;;;0.30;0.30;;;;;;;11.68;78.05;100676.28;6137352;23;20032;-77
2023/12/26 03:05:56;;;;;;;0.25;0.25;;;;;;;11.64;77.76;100675.09;6137345;23;20026;-77
2023/12/26 03:08:24;;;;;;;1.02;0.40;;;;;;;11.68;78.27;100689.75;6137692;23;20077;-77
2023/12/26 03:10:52;;;;;;;0.50;0.47;;;;;;;11.68;78.17;100688.94;6138022;23;20032;-77
2023/12/26 03:13:20;;;;;;;0.40;0.40;;;;;;;11.66;78.08;100710.69;6137323;23;20022;-77
2023/12/26 03:15:49;;;;;;;0.70;0.55;;;;;;;11.66;77.94;100717.94;6137314;23;20022;-77
2023/12/26 03:18:17;;;;;;;0.70;0.50;;;;;;;11.64;78.17;100728.13;6137278;23;20030;-76
2023/12/26 03:20:45;;;;;;;0.98;0.63;;;;;;;11.61;77.98;100737.47;6136174;23;20026;-77
2023/12/26 03:23:13;;;;;;;0.70;0.45;;;;;;;11.59;78.28;100728.00;6135619;23;20117;-77
2023/12/26 03:25:41;;;;;;;0.70;0.70;;;;;;;11.58;77.83;100723.66;6136250;23;20025;-77
2023/12/26 03:28:09;;;;;;;3.78;0.65;;;;;;;11.59;78.05;100725.31;6135062;23;20021;-76
2023/12/26 03:30:38;;;;;;;0.77;0.73;;;;;;;11.58;77.74;100726.38;6136672;23;20040;-77
2023/12/26 03:33:07;;;;;;;0.82;0.82;;;;;;;11.59;77.71;100731.50;6137775;23;20022;-76
2023/12/26 03:35:35;;;;;;;1.73;0.70;;;;;;;11.60;77.96;100735.84;6137571;23;20029;-76
2023/12/26 03:38:05;;;;;;;1.77;0.93;;;;;;;11.60;77.41;100743.91;6137584;23;20050;-76
2023/12/26 03:40:33;;;;;;;1.83;0.93;;;;;;;11.60;77.57;100726.94;6137115;23;20026;-76
2023/12/26 03:43:01;;;;;;;2.55;0.80;;;;;;;11.60;77.43;100735.84;6136738;23;20096;-76
2023/12/26 03:45:29;;;;;;;1.27;0.98;;;;;;;11.60;77.39;100724.25;6137091;23;20090;-76
2023/12/26 03:47:57;;;;;;;1.77;0.90;;;;;;;11.59;77.58;100736.06;6137117;23;20120;-76
2023/12/26 03:50:27;;;;;;;1.85;0.80;;;;;;;11.59;77.32;100736.91;6135379;23;20066;-76
2023/12/26 03:52:55;;;;;;;0.80;0.80;;;;;;;11.58;77.19;100737.94;6136010;23;20436;-76
2023/12/26 03:55:23;;;;;;;1.50;0.82;;;;;;;11.59;77.19;100741.47;6137229;23;20281;-77
2023/12/26 03:57:51;;;;;;;1.33;1.10;;;;;;;11.60;77.24;100745.78;6136822;23;20054;-77
2023/12/26 04:00:19;;;;;;;3.80;1.02;;;;;;;11.60;76.96;100748.47;6136364;23;20032;-76
2023/12/26 04:02:48;;;;;;;4.53;1.10;;;;;;;11.58;77.14;100739.81;6136878;23;20026;-77
2023/12/26 04:05:16;;;;;;;4.53;1.10;;;;;;;11.58;76.92;100761.34;6137486;23;20032;-76
2023/12/26 04:07:46;;;;;;;2.05;1.20;;;;;;;11.58;76.89;100753.28;6137255;23;20049;-76
2023/12/26 04:10:14;;;;;;;3.58;1.00;;;;;;;11.57;76.85;100765.91;6136184;23;20076;-76
2023/12/26 04:12:42;;;;;;;2.88;1.50;;;;;;;11.55;76.73;100770.72;6136496;23;20057;-76
2023/12/26 04:15:10;;;;;;;1.98;1.20;;;;;;;11.55;77.23;100780.66;6136692;23;20073;-76
2023/12/26 04:17:38;;;;;;;6.38;1.38;;;;;;;11.55;76.92;100783.34;6136782;23;20108;-76
2023/12/26 04:20:07;;;;;;;2.40;1.25;;;;;;;11.52;76.97;100779.25;6135585;23;20073;-77
2023/12/26 04:22:35;;;;;;;7.35;2.38;;;;;;;11.48;77.15;100790.69;6135751;23;20026;-77
2023/12/26 04:25:06;;;;;;;4.78;1.90;;;;;;;11.47;77.23;100795.25;6135350;23;20076;-77
2023/12/26 04:27:34;;;;;;;2.85;1.80;;;;;;;11.49;76.91;100787.78;6135557;23;20209;-77
2023/12/26 04:30:02;;;;;;;6.07;1.92;;;;;;;11.50;77.30;100796.66;6135221;23;20022;-77
2023/12/26 04:32:30;;;;;;;2.78;1.50;;;;;;;11.50;76.87;100796.66;6136532;23;20049;-77
2023/12/26 04:34:58;;;;;;;4.90;1.60;;;;;;;11.50;77.13;100799.34;6136293;23;20030;-77
2023/12/26 04:37:27;;;;;;;4.00;1.55;;;;;;;11.49;76.83;100790.47;6136598;23;20030;-77
2023/12/26 04:39:54;;;;;;;7.05;2.00;;;;;;;11.46;76.73;100788.22;6136339;23;20033;-77
2023/12/26 04:42:24;;;;;;;4.65;1.60;;;;;;;11.44;76.81;100800.28;6136420;23;20432;-77
2023/12/26 04:44:52;;;;;;;7.90;2.10;;;;;;;11.44;77.14;100795.72;6135727;23;20026;-77
2023/12/26 04:47:20;;;;;;;6.22;2.20;;;;;;;11.45;77.06;100801.91;6136130;23;20032;-77
2023/12/26 04:49:48;;;;;;;6.10;1.67;;;;;;;11.47;76.70;100811.41;6135598;23;20026;-77
2023/12/26 04:52:18;;;;;;;9.13;2.15;;;;;;;11.46;76.69;100799.00;6135478;23;20505;-77
2023/12/26 04:54:46;;;;;;;7.43;2.33;;;;;;;11.44;76.56;100809.16;6133705;23;20026;-77
2023/12/26 04:57:14;;;;;;;6.50;2.72;;;;;;;11.42;76.60;100811.25;6135521;23;20036;-77
2023/12/26 04:59:43;;;;;;;10.32;2.38;;;;;;;11.42;76.53;100822.03;6136212;23;20097;-77
2023/12/26 05:02:11;;;;;;;6.75;1.90;;;;;;;11.43;76.50;100833.63;6135660;23;20026;-77
2023/12/26 05:04:39;;;;;;;4.65;1.70;;;;;;;11.43;76.61;100847.91;6136473;23;20030;-77
2023/12/26 05:07:08;;;;;;;7.20;2.20;;;;;;;11.43;76.50;100847.06;6136086;23;20026;-78
2023/12/26 05:09:36;;;;;;;5.72;1.65;;;;;;;11.43;76.06;100857.84;6135952;23;20053;-77
2023/12/26 05:12:04;;;;;;;7.85;1.95;;;;;;;11.40;76.03;100856.41;6136534;23;20134;-77
2023/12/26 05:14:32;;;;;;;6.47;1.70;;;;;;;11.41;75.85;100866.97;6136137;23;20069;-77
2023/12/26 05:17:02;;;;;;;8.02;2.92;;;;;;;11.38;75.68;100870.09;6135364;23;20028;-74
2023/12/26 05:19:29;;;;;;;7.97;1.75;;;;;;;11.37;75.58;100873.00;6135319;23;20429;-75
2023/12/26 05:21:57;;;;;;;7.60;1.60;;;;;;;11.35;75.19;100875.13;6135087;23;20037;-76
2023/12/26 05:24:25;;;;;;;10.80;2.28;;;;;;;11.33;74.97;100869.13;6134840;23;20097;-76
2023/12/26 05:26:53;;;;;;;4.20;1.27;;;;;;;11.20;74.93;100858.53;6135045;23;20030;-76
2023/12/26 05:29:21;;;;;;;5.68;1.83;;;;;;;11.32;74.58;100875.56;6135646;23;20104;-76
2023/12/26 05:31:48;;;;;;;4.93;1.40;;;;;;;11.33;74.47;100890.66;6136063;23;20025;-76
2023/12/26 05:34:18;;;;;;;8.45;2.13;;;;;;;11.30;74.04;100889.25;6136540;23;20081;-76
2023/12/26 05:36:46;;;;;;;7.90;2.53;;;;;;;11.27;73.89;100888.88;6135967;23;20168;-76
2023/12/26 05:39:14;;;;;;;8.93;2.15;;;;;;;11.27;73.93;100897.75;6136216;23;20112;-77
2023/12/26 05:41:42;;;;;;;10.93;1.88;;;;;;;11.25;74.09;100896.34;6135955;23;20026;-76
2023/12/26 05:44:10;;;;;;;8.98;1.77;;;;;;;11.25;74.00;100899.84;6134104;23;20040;-76
2023/12/26 05:46:37;;;;;;;10.38;2.20;;;;;;;11.24;73.53;100919.72;6134378;23;20037;-76
2023/12/26 05:49:06;;;;;;;8.43;2.35;;;;;;;11.24;73.73;100913.53;6133835;23;20026;-77
2023/12/26 05:51:35;;;;;;;6.20;2.58;;;;;;;11.22;73.63;100927.22;6132732;23;20452;-77
2023/12/26 05:54:03;;;;;;;8.00;1.85;;;;;;;11.23;73.36;100938.78;6133362;23;20029;-76
2023/12/26 05:56:31;;;;;;;6.68;1.40;;;;;;;11.21;73.30;100938.19;6132298;23;20039;-76
2023/12/26 05:58:59;;;;;;;8.88;2.20;;;;;;;11.20;73.14;100939.25;6133609;23;20026;-77
2023/12/26 06:01:27;;;;;;;11.50;2.58;;;;;;;11.20;72.80;100941.94;6133428;23;20076;-76
2023/12/26 06:03:56;;;;;;;9.45;1.50;;;;;;;11.17;72.68;100951.28;6134701;23;20022;-77
2023/12/26 06:06:23;;;;;;;10.02;1.58;;;;;;;11.14;72.16;100957.09;6133398;23;20410;-77
2023/12/26 06:08:53;;;;;;;10.07;2.17;;;;;;;11.14;72.26;100958.97;6134529;23;20022;-76
2023/12/26 06:11:21;;;;;;;6.20;1.55;;;;;;;11.14;72.24;100972.41;6134135;23;20032;-77
2023/12/26 06:13:48;;;;;;;6.78;1.48;;;;;;;11.11;72.36;100989.00;6134070;23;20045;-77
2023/12/26 06:16:16;;;;;;;12.77;1.48;;;;;;;11.10;71.91;100985.47;6133353;23;20022;-77
2023/12/26 06:18:44;;;;;;;6.90;1.15;;;;;;;11.12;72.15;100986.09;6134285;23;20059;-70
2023/12/26 06:21:12;;;;;;;6.53;1.80;;;;;;;11.14;72.24;101000.13;6134830;23;20022;-71
2023/12/26 06:23:40;;;;;;;7.85;2.22;;;;;;;11.14;72.30;101000.13;6134499;23;20018;-71
2023/12/26 06:26:10;;;;;;;7.78;1.40;;;;;;;11.14;72.13;101002.81;6134132;23;20041;-73
2023/12/26 06:28:37;;;;;;;11.07;1.80;;;;;;;11.15;72.51;101007.16;6135341;23;20026;-72
2023/12/26 06:31:05;;;;;;;6.90;1.80;;;;;;;11.15;72.12;101014.41;6135390;23;20026;-74
2023/12/26 06:33:33;;;;;;;8.95;2.67;;;;;;;11.15;72.24;101014.41;6136561;23;20037;-74
2023/12/26 06:36:01;;;;;;;6.22;1.48;;;;;;;11.14;72.66;101028.91;6135969;23;20037;-73
2023/12/26 06:38:29;;;;;;;6.55;2.17;;;;;;;11.14;72.76;101036.97;6136471;23;20030;-69
2023/12/26 06:40:57;;;;;;;6.38;1.67;;;;;;;11.16;72.53;101029.50;6135988;23;20081;-69
2023/12/26 06:43:26;;;;;;;10.60;1.50;;;;;;;11.13;72.81;101038.84;6135614;23;20294;-70
2023/12/26 06:45:54;;;;;;;7.80;1.42;;;;;;;11.16;72.74;101040.25;6135681;23;20030;-72
2023/12/26 06:48:22;;;;;;;8.93;1.48;;;;;;;11.13;72.06;101035.31;6136079;23;20026;-72
2023/12/26 06:50:50;;;;;;;8.07;1.95;;;;;;;11.12;71.86;101030.97;6133575;23;20030;-73
2023/12/26 06:53:18;;;;;;;5.70;1.33;;;;;;;11.08;71.64;101034.13;6133353;23;20082;-74
2023/12/26 06:55:46;;;;;;;5.80;1.20;;;;;;;11.08;71.54;101041.38;6134545;23;20085;-72
2023/12/26 06:58:13;;;;;;;10.05;2.17;;;;;;;11.05;71.07;101039.94;6135547;23;20022;-70
2023/12/26 07:00:43;;;;;;;8.07;2.05;;;;;;;11.06;71.28;101046.97;6134582;23;20025;-72
2023/12/26 07:03:11;;;;;;;9.70;2.83;;;;;;;11.06;71.62;101046.13;6135740;23;20026;-72
2023/12/26 07:05:39;;;;;;;10.57;1.63;;;;;;;10.99;71.63;101040.81;6135205;23;20030;-72
2023/12/26 07:08:08;;;;;;;10.98;1.83;;;;;;;11.04;70.68;101056.28;6135886;23;20021;-68
2023/12/26 07:10:35;;;;;;;13.23;2.90;;;;;;;11.03;71.51;101060.84;6135845;23;20026;-70
2023/12/26 07:13:04;;;;;;;4.85;1.10;;;;;;;11.01;70.60;101070.19;6136943;23;20088;-75
2023/12/26 07:15:31;;;;;;;8.25;1.83;;;;;;;11.01;71.43;101073.69;6139969;23;20022;-72
2023/12/26 07:18:01;;;;;;;7.78;2.00;;;;;;;11.01;70.60;101089.00;6135626;23;20030;-74
2023/12/26 07:20:29;;;;;;;13.27;1.60;;;;;;;10.97;70.33;101098.53;6134117;23;20026;-72
2023/12/26 07:22:56;;;;;;;7.95;2.10;;;;;;;10.98;70.65;101098.34;6134080;23;20030;-76
2023/12/26 07:25:25;;;;;;;4.72;1.23;;;;;;;10.96;69.31;101104.97;6133699;23;20029;-71
2023/12/26 07:27:53;;;;;;;10.40;2.03;;;;;;;10.94;69.46;101115.94;6134726;23;20026;-67
2023/12/26 07:30:22;;;;;;;6.30;1.25;;;;;;;10.87;69.63;101117.84;6134581;23;20085;-72
2023/12/26 07:32:50;;;;;;;7.68;1.40;;;;;;;10.91;69.85;101120.94;6135503;23;20022;-73
2023/12/26 07:35:19;;;;;;;8.10;2.28;;;;;;;10.90;70.06;101113.91;6135563;23;20032;-73
2023/12/26 07:37:47;;;;;;;7.60;2.00;;;;;;;10.89;69.88;101118.47;6135505;23;20320;-69
2023/12/26 07:40:15;;;;;;;5.38;1.45;;;;;;;10.89;69.82;101113.09;6134305;23;20067;-69
2023/12/26 07:42:43;;;;;;;9.38;1.60;;;;;;;10.89;69.47;101123.00;6135430;23;20092;-71
2023/12/26 07:45:11;;;;;;;7.03;1.70;;;;;;;10.90;69.99;101121.97;6134285;23;20049;-70
2023/12/26 07:47:39;;;;;;;5.30;1.50;;;;;;;10.90;70.49;101140.78;6134455;23;20429;-67
2023/12/26 07:50:08;;;;;;;4.78;1.27;;;;;;;10.90;70.70;101140.78;6134290;23;20026;-68
2023/12/26 07:52:37;;;;;;;7.28;1.83;;;;;;;10.89;70.96;101147.22;6135735;23;20030;-66
2023/12/26 07:55:06;;;;;;;8.77;1.65;;;;;;;10.90;71.18;101159.63;6133980;23;20026;-71
2023/12/26 07:57:34;;;;;;;8.27;2.35;;;;;;;10.89;70.90;101166.03;6135238;23;20054;-72
2023/12/26 08:00:02;;;;;;;4.65;1.38;;;;;;;10.88;70.76;101178.66;6135735;23;20026;-73
2023/12/26 08:02:29;;;;;;;9.00;2.05;;;;;;;10.87;70.14;101179.69;6136634;23;20026;-72
2023/12/26 08:04:57;;;;;;;7.70;2.08;;;;;;;10.86;70.74;101188.81;6137464;23;20074;-73
2023/12/26 08:07:25;;;;;;;8.23;1.80;;;;;;;10.87;70.97;101189.63;6137549;23;20025;-73
2023/12/26 08:09:54;;;;;;;10.70;2.05;;;;;;;10.84;69.92;101193.56;6137151;23;20029;-74
2023/12/26 08:12:22;;;;;;;7.80;2.78;;;;;;;10.84;70.76;101204.31;6137651;23;20337;-73
2023/12/26 08:14:50;;;;;;;6.40;1.60;;;;;;;10.83;70.54;101208.06;6137090;23;20028;-73
2023/12/26 08:17:19;;;;;;;8.48;1.58;;;;;;;10.84;70.75;101206.19;6136891;23;20026;-73
2023/12/26 08:19:46;;;;;;;5.72;1.58;;;;;;;10.84;70.93;101211.56;6136935;23;20033;-73
2023/12/26 08:22:14;;;;;;;12.95;2.45;;;;;;;10.84;71.07;101211.56;6136189;23;20053;-73
2023/12/26 08:24:42;;;;;;;6.70;1.35;;;;;;;10.83;70.69;101218.81;6135474;23;20072;-73
2023/12/26 08:27:11;;;;;;;5.53;1.52;;;;;;;10.82;69.91;101227.09;6136321;23;20100;-73
2023/12/26 08:29:39;;;;;;;8.93;1.90;;;;;;;10.80;69.80;101216.53;6137145;23;20052;-73
2023/12/26 08:32:07;;;;;;;8.07;1.95;;;;;;;10.80;70.39;101219.22;6136704;23;20337;-74
2023/12/26 08:34:35;;;;;;;6.75;1.40;;;;;;;10.66;70.15;101202.34;6137239;23;20022;-74
2023/12/26 08:37:03;;;;;;;8.35;2.38;;;;;;;10.77;70.06;101225.88;6136988;23;20049;-74
2023/12/26 08:39:31;;;;;;;10.13;2.40;;;;;;;10.76;70.55;101229.59;6136784;23;20026;-74
2023/12/26 08:41:59;;;;;;;16.70;2.65;;;;;;;10.77;70.42;101241.16;6137344;23;20096;-73
2023/12/26 08:44:28;;;;;;;11.75;2.45;;;;;;;10.77;69.98;101254.63;6136848;23;20125;-73
2023/12/26 08:46:56;;;;;;;8.18;2.50;;;;;;;10.77;70.15;101268.06;6136939;23;20025;-74
2023/12/26 08:49:24;;;;;;;8.48;2.17;;;;;;;10.76;70.28;101263.72;6135920;23;20441;-73
2023/12/26 08:51:52;;;;;;;15.40;3.13;;;;;;;10.74;69.88;101265.78;6135858;23;20041;-73
2023/12/26 08:54:20;;;;;;;7.45;1.88;;;;;;;10.73;70.21;101269.53;6134704;23;20026;-73
2023/12/26 08:56:48;;;;;;;9.50;1.80;;;;;;;10.73;69.75;101275.72;6135995;23;20026;-73
2023/12/26 08:59:16;;;;;;;17.13;3.10;;;;;;;10.72;69.46;101286.69;6136750;23;20082;-74
2023/12/26 09:01:45;;;;;;;6.43;1.80;;;;;;;10.71;69.82;101287.72;6136296;23;20029;-74
2023/12/26 09:04:13;;;;;;;11.10;1.88;;;;;;;10.70;69.20;101286.06;6136855;23;20022;-74
2023/12/26 09:06:41;;;;;;;9.13;2.70;;;;;;;10.54;68.98;101262.34;6137290;23;20033;-73
2023/12/26 09:09:09;;;;;;;7.13;2.45;;;;;;;10.65;69.25;101292.09;6136749;23;20040;-73
2023/12/26 09:11:37;;;;;;;10.02;2.10;;;;;;;10.66;69.50;101295.59;6136759;23;20085;-73
2023/12/26 09:14:05;;;;;;;12.65;2.63;;;;;;;10.66;69.80;101290.22;6136725;23;20022;-73
2023/12/26 09:16:33;;;;;;;6.45;1.88;;;;;;;10.66;69.30;101291.03;6136221;23;20022;-73
2023/12/26 09:19:02;;;;;;;14.57;3.30;;;;;;;10.64;69.29;101311.09;6136355;23;20036;-73
2023/12/26 09:21:30;;;;;;;7.97;2.00;;;;;;;10.65;69.63;101313.59;6134477;23;20527;-74
2023/12/26 09:23:58;;;;;;;11.05;2.47;;;;;;;10.64;69.56;101322.69;6134786;23;20050;-73
2023/12/26 09:26:26;;;;;;;6.22;2.20;;;;;;;10.66;69.78;101328.69;6135466;23;20022;-73
2023/12/26 09:28:54;;;;;;;7.65;1.88;;;;;;;10.64;69.88;101324.56;6135287;23;20022;-72
2023/12/26 09:31:22;;;;;;;8.10;2.13;;;;;;;10.65;70.09;101321.66;6134698;23;20318;-73
2023/12/26 09:33:50;;;;;;;8.43;2.75;;;;;;;10.66;70.13;101319.78;6135507;23;20045;-73
2023/12/26 09:36:19;;;;;;;11.65;3.17;;;;;;;10.63;69.45;101333.66;6135424;23;20066;-73
2023/12/26 09:38:47;;;;;;;13.43;2.30;;;;;;;10.64;69.68;101338.81;6135505;23;20030;-73
2023/12/26 09:41:17;;;;;;;12.27;2.15;;;;;;;10.64;69.35;101338.81;6135894;23;20032;-73
2023/12/26 09:43:45;;;;;;;12.57;2.35;;;;;;;10.63;69.72;101349.78;6135895;23;20523;-73
2023/12/26 09:46:13;;;;;;;10.80;1.85;;;;;;;10.64;69.71;101360.31;6136273;23;20025;-73
2023/12/26 09:48:41;;;;;;;10.50;2.28;;;;;;;10.58;68.64;101349.56;6136666;23;20531;-74
2023/12/26 09:51:18;;;;;;;12.57;2.20;;;;;;;10.58;68.57;101368.41;6135046;23;20037;-74
2023/12/26 09:53:52;;;;;;;8.82;2.55;;;;;;;10.53;68.74;101371.72;6136216;23;20022;-74
2023/12/26 09:56:21;;;;;;;14.40;2.55;;;;;;;10.59;68.71;101389.69;6138636;23;20037;-73
2023/12/26 09:58:50;;;;;;;12.38;2.53;;;;;;;10.60;68.62;101390.50;6139294;23;20025;-73
2023/12/26 10:01:19;;;;;;;8.63;2.08;;;;;;;10.59;68.16;101396.91;6138589;23;20036;-73
2023/12/26 10:03:47;;;;;;;10.10;2.38;;;;;;;10.58;68.63;101397.97;6139659;23;20404;-73
2023/12/26 10:06:15;;;;;;;12.45;2.45;;;;;;;10.54;68.55;101392.16;6139518;23;20022;-73
2023/12/26 10:08:43;;;;;;;12.40;2.28;;;;;;;10.56;68.75;101405.41;6140226;23;20044;-73
2023/12/26 10:11:16;;;;;;;12.70;1.90;;;;;;;10.57;68.81;101407.06;6139377;23;20026;-73
2023/12/26 10:13:45;;;;;;;11.00;2.33;;;;;;;10.58;69.29;101411.41;6139710;23;20026;-73
2023/12/26 10:16:13;;;;;;;12.13;2.08;;;;;;;10.58;68.87;101408.72;6139825;23;20021;-73
2023/12/26 10:18:41;;;;;;;12.63;2.70;;;;;;;10.58;69.12;101416.78;6139400;23;20475;-73
2023/12/26 10:21:09;;;;;;;13.23;2.45;;;;;;;10.57;68.95;101418.63;6138195;23;20042;-74
2023/12/26 10:23:37;;;;;;;11.40;1.90;;;;;;;10.58;69.08;101419.47;6138458;23;20053;-74
2023/12/26 10:26:05;;;;;;;9.57;2.30;;;;;;;10.57;69.54;101415.94;6138375;23;20018;-73
2023/12/26 10:28:38;;;;;;;12.23;2.67;;;;;;;10.58;69.08;101430.22;6139504;23;20053;-73
2023/12/26 10:31:13;;;;;;;11.52;2.38;;;;;;;10.56;69.09;101429.59;6139468;23;20025;-73
2023/12/26 10:33:43;;;;;;;11.57;2.33;;;;;;;10.54;69.04;101432.50;6139783;23;20444;-74
2023/12/26 10:36:11;;;;;;;7.55;1.92;;;;;;;10.57;69.09;101433.94;6139300;23;20022;-73
2023/12/26 10:38:40;;;;;;;13.85;2.20;;;;;;;10.57;69.26;101437.44;6140131;23;20022;-74
2023/12/26 10:41:11;;;;;;;11.88;2.83;;;;;;;10.57;68.84;101432.06;6139086;23;20028;-74
2023/12/26 10:43:41;;;;;;;9.80;2.90;;;;;;;10.58;68.53;101438.28;6138835;23;20080;-73
2023/12/26 10:46:09;;;;;;;11.27;2.72;;;;;;;10.55;68.75;101428.75;6139554;23;20026;-73
2023/12/26 10:48:44;;;;;;;9.55;3.03;;;;;;;10.56;68.99;101427.72;6139110;23;20026;-73
2023/12/26 10:51:14;;;;;;;10.85;2.28;;;;;;;10.57;68.99;101434.75;6137897;23;20029;-73
2023/12/26 10:53:49;;;;;;;10.90;2.08;;;;;;;10.58;68.92;101431.03;6137727;23;20021;-73
2023/12/26 10:56:19;;;;;;;12.77;3.28;;;;;;;10.56;68.74;101427.72;6138271;23;20057;-74
2023/12/26 10:58:50;;;;;;;14.88;2.42;;;;;;;10.52;68.67;101414.91;6137955;23;20037;-73
2023/12/26 13:51:25;;;;;;;9.23;1.85;;;;;;;10.50;66.21;101589.81;6134814;23;20026;-74
2023/12/26 13:54:30;;;;;;;14.52;2.90;;;;;;;10.52;65.86;101608.41;6134343;23;20539;-74
2023/12/26 13:57:36;;;;;;;12.55;2.67;;;;;;;10.47;66.02;101598.28;6135534;23;20018;-74
2023/12/26 14:00:41;;;;;;;13.73;2.67;;;;;;;10.51;66.13;101612.13;6136033;23;20101;-74
2023/12/26 14:03:50;;;;;;;13.15;2.88;;;;;;;10.46;65.66;101612.75;6135515;23;20026;-74
2023/12/26 14:06:56;;;;;;;15.85;2.78;;;;;;;10.46;65.89;101628.03;6136413;23;20049;-73
2023/12/26 14:10:03;;;;;;;15.93;2.75;;;;;;;10.43;65.84;101627.41;6136640;23;20029;-73
2023/12/26 14:13:08;;;;;;;10.40;2.20;;;;;;;10.38;66.26;101631.75;6136611;23;20027;-74
2023/12/26 14:16:13;;;;;;;11.88;1.90;;;;;;;10.41;66.12;101631.31;6136045;23;20037;-74
2023/12/26 14:19:20;;;;;;;11.82;2.97;;;;;;;10.42;66.23;101641.88;6136747;23;20100;-74
2023/12/26 14:22:25;;;;;;;11.40;2.85;;;;;;;10.47;66.20;101635.06;6134933;23;20081;-73
2023/12/26 14:25:31;;;;;;;16.42;3.67;;;;;;;10.48;66.58;101634.88;6134061;23;20029;-73